Time;durP1;ratioP1;P1;durP2;ratioP2;P2;SDS_P1;SDS_P2;PMS_P1;PMS_P2;Temp;Humidity;BMP_temperature;BMP_pressure;BME280_temperature;BME280_humidity;BME280_pressure;Samples;Min_cycle;Max_cycle;Signal;HPM_P1;HPM_P2
2023/04/09 00:01:10;;;;;;;30.42;19.75;;;;;;;13.66;55.06;102518.13;4930458;28;119246;-70
2023/04/09 00:03:39;;;;;;;30.58;19.73;;;;;;;13.66;55.12;102512.81;4934385;28;119079;-69
2023/04/09 00:06:06;;;;;;;32.53;19.92;;;;;;;13.66;55.17;102511.94;4929072;28;124362;-70
2023/04/09 00:08:34;;;;;;;30.50;19.50;;;;;;;13.63;55.32;102518.22;4932367;28;123734;-69
2023/04/09 00:11:03;;;;;;;34.17;19.55;;;;;;;13.62;55.39;102516.47;4929182;28;118484;-69
2023/04/09 00:13:30;;;;;;;30.95;20.35;;;;;;;13.61;55.44;102509.41;4933822;28;120744;-70
2023/04/09 00:16:06;;;;;;;28.98;19.98;;;;;;;13.60;55.61;102518.31;4927764;28;124384;-70
2023/04/09 00:18:34;;;;;;;31.17;19.77;;;;;;;13.58;55.40;102509.47;4931467;28;123731;-70
2023/04/09 00:21:01;;;;;;;35.85;20.38;;;;;;;13.56;55.45;102511.31;4927954;28;119265;-69
2023/04/09 00:23:28;;;;;;;30.75;20.20;;;;;;;13.54;55.52;102502.50;4932047;28;119449;-71
2023/04/09 00:25:55;;;;;;;28.80;19.67;;;;;;;13.53;55.44;102506.13;4916828;28;123763;-70
2023/04/09 00:28:24;;;;;;;30.80;19.52;;;;;;;13.53;55.56;102506.13;4933844;28;123118;-71
2023/04/09 00:30:51;;;;;;;29.95;20.20;;;;;;;13.53;55.60;102501.66;4929950;28;119145;-70
2023/04/09 00:33:18;;;;;;;33.13;20.27;;;;;;;13.54;55.56;102502.50;4933126;28;118962;-70
2023/04/09 00:35:45;;;;;;;31.80;20.73;;;;;;;13.53;55.64;102498.13;4929006;28;125361;-70
2023/04/09 00:38:13;;;;;;;32.58;20.95;;;;;;;13.54;55.70;102497.19;4929311;28;123218;-70
2023/04/09 00:40:40;;;;;;;33.50;21.92;;;;;;;13.55;55.61;102493.63;4901429;28;119305;-69
2023/04/09 00:43:07;;;;;;;34.13;21.30;;;;;;;13.56;55.71;102500.69;4941359;22;119757;-79
2023/04/09 00:45:35;;;;;;;34.50;21.27;;;;;;;13.56;55.68;102496.25;4915889;28;125332;-82
2023/04/09 00:48:02;;;;;;;33.88;21.65;;;;;;;13.57;55.74;102491.78;4930680;28;126034;-79
2023/04/09 00:50:30;;;;;;;35.47;22.65;;;;;;;13.60;55.64;102486.38;4948918;28;119187;-79
2023/04/09 00:52:57;;;;;;;33.85;22.33;;;;;;;13.61;55.57;102482.78;4948304;28;119563;-82
2023/04/09 00:55:24;;;;;;;36.60;23.00;;;;;;;13.62;55.74;102473.88;4948847;28;122099;-80
2023/04/09 00:57:51;;;;;;;36.67;22.42;;;;;;;13.62;55.72;102474.75;4952566;28;122259;-81
2023/04/09 01:00:19;;;;;;;37.90;24.02;;;;;;;13.63;55.56;102478.28;4940183;28;118612;-80
2023/04/09 01:02:47;;;;;;;37.00;23.23;;;;;;;13.64;55.59;102472.03;4945501;28;117680;-80
2023/04/09 01:05:15;;;;;;;36.90;22.70;;;;;;;13.63;55.58;102470.28;4929128;28;122142;-79
2023/04/09 01:08:04;;;;;;;36.15;24.17;;;;;;;13.63;55.76;102470.28;4960639;28;122495;-80
2023/04/09 01:10:35;;;;;;;38.65;24.08;;;;;;;13.63;55.69;102470.28;4959862;28;118952;-80
2023/04/09 01:13:10;;;;;;;36.92;23.25;;;;;;;13.64;55.69;102472.03;4941197;28;119924;-79
2023/04/09 01:15:45;;;;;;;39.20;23.85;;;;;;;13.62;55.67;102466.75;4947238;28;124302;-81
2023/04/09 01:18:17;;;;;;;39.15;24.33;;;;;;;13.62;55.66;102469.44;4952410;28;122227;-81
2023/04/09 01:20:55;;;;;;;39.70;24.48;;;;;;;13.60;55.55;102465.09;4971270;28;119214;-79
2023/04/09 01:23:31;;;;;;;38.58;23.88;;;;;;;13.57;55.40;102460.69;4966984;28;119588;-82
2023/04/09 01:26:10;;;;;;;38.83;24.90;;;;;;;13.55;55.75;102473.19;4954529;28;122477;-79
2023/04/09 01:28:47;;;;;;;38.90;24.65;;;;;;;13.55;55.58;102467.00;4949738;28;123449;-79
2023/04/09 01:31:17;;;;;;;38.70;24.50;;;;;;;13.56;55.71;102468.72;4948802;28;119929;-81
2023/04/09 01:33:45;;;;;;;42.28;26.63;;;;;;;13.56;55.58;102458.09;4960946;28;119550;-81
2023/04/09 01:36:14;;;;;;;37.28;23.77;;;;;;;13.55;55.67;102461.69;4956522;28;123370;-81
2023/04/09 01:38:43;;;;;;;39.60;24.73;;;;;;;13.55;55.80;102461.69;4936102;28;123547;-80
2023/04/09 01:41:18;;;;;;;38.55;23.80;;;;;;;13.54;55.69;102462.59;4952472;28;117431;-81
2023/04/09 01:43:47;;;;;;;38.87;24.47;;;;;;;13.54;55.64;102455.50;4950868;28;117481;-79
2023/04/09 01:46:15;;;;;;;39.78;24.73;;;;;;;13.52;55.67;102451.13;4954126;28;123252;-79
2023/04/09 01:48:43;;;;;;;38.40;23.95;;;;;;;13.51;55.72;102454.72;4955490;28;123236;-80
2023/04/09 01:51:13;;;;;;;38.42;23.63;;;;;;;13.49;55.91;102457.44;4952424;28;118345;-79
2023/04/09 01:53:40;;;;;;;38.53;24.15;;;;;;;13.49;55.80;102456.56;4952346;28;117511;-81
2023/04/09 01:56:08;;;;;;;39.00;24.88;;;;;;;13.49;55.75;102456.56;4956143;28;124675;-79
2023/04/09 01:58:35;;;;;;;40.92;25.45;;;;;;;13.50;55.84;102458.28;4972022;28;124392;-79
2023/04/09 02:01:13;;;;;;;41.40;24.92;;;;;;;13.49;55.79;102457.44;4954358;28;118549;-79
2023/04/09 02:03:47;;;;;;;44.10;26.40;;;;;;;13.49;55.74;102461.88;4970515;28;119836;-80
2023/04/09 02:06:25;;;;;;;42.28;25.63;;;;;;;13.49;55.68;102461.88;4955430;28;123505;-80
2023/04/09 02:08:54;;;;;;;43.03;25.92;;;;;;;13.46;55.72;102462.84;4968223;28;123333;-80
2023/04/09 02:11:22;;;;;;;42.47;24.52;;;;;;;13.44;55.72;102460.22;4970200;28;118995;-79
2023/04/09 02:13:52;;;;;;;44.90;26.23;;;;;;;13.42;55.54;102462.06;4970243;28;118879;-79
2023/04/09 02:16:20;;;;;;;42.85;26.00;;;;;;;13.41;55.59;102460.31;4971293;28;123819;-81
2023/04/09 02:18:53;;;;;;;41.42;26.77;;;;;;;13.38;55.75;102449.75;4968646;28;124168;-80
2023/04/09 02:21:22;;;;;;;44.88;27.20;;;;;;;13.36;55.68;102462.25;4951615;28;120771;-79
2023/04/09 02:23:49;;;;;;;44.80;26.08;;;;;;;13.32;55.89;102460.59;4971318;28;118679;-79
2023/04/09 02:26:17;;;;;;;46.78;27.00;;;;;;;13.32;56.11;102455.28;4970691;28;124757;-79
2023/04/09 02:28:44;;;;;;;44.78;26.23;;;;;;;13.31;55.91;102458.84;4955754;28;122558;-81
2023/04/09 02:31:12;;;;;;;43.47;26.13;;;;;;;13.30;55.96;102457.13;4971231;28;119863;-79
2023/04/09 02:33:39;;;;;;;45.28;26.80;;;;;;;13.31;56.02;102458.84;4938968;28;118619;-79
2023/04/09 02:36:14;;;;;;;46.30;26.85;;;;;;;13.30;56.00;102457.13;4958461;28;122808;-80
2023/04/09 02:38:41;;;;;;;43.53;25.63;;;;;;;13.30;55.95;102451.81;4959285;28;122924;-80
2023/04/09 02:41:09;;;;;;;43.53;26.08;;;;;;;13.30;56.12;102441.16;4956496;28;118647;-78
2023/04/09 02:43:36;;;;;;;42.42;25.75;;;;;;;13.31;56.08;102442.03;4970462;28;120040;-82
2023/04/09 02:46:03;;;;;;;46.20;26.88;;;;;;;13.30;55.88;102451.81;4957392;28;123626;-79
2023/04/09 02:48:31;;;;;;;44.47;26.60;;;;;;;13.28;55.91;102453.59;4965263;28;123435;-79
2023/04/09 02:50:58;;;;;;;42.90;25.98;;;;;;;13.26;55.78;102447.47;4952886;28;120308;-79
2023/04/09 02:53:25;;;;;;;43.30;26.55;;;;;;;13.24;55.79;102446.63;4954422;28;118098;-80
2023/04/09 02:55:53;;;;;;;44.03;26.58;;;;;;;13.21;55.60;102444.06;4973066;28;126392;-79
2023/04/09 02:58:20;;;;;;;43.88;25.90;;;;;;;13.20;55.70;102442.31;4957361;28;122366;-80
2023/04/09 03:00:47;;;;;;;43.50;25.95;;;;;;;13.19;55.66;102441.44;4973543;28;118253;-78
2023/04/09 03:03:14;;;;;;;44.28;25.13;;;;;;;13.21;55.66;102444.06;4954465;28;119747;-79
2023/04/09 03:05:42;;;;;;;44.28;26.50;;;;;;;13.20;55.63;102444.97;4967461;28;123266;-80
2023/04/09 03:08:09;;;;;;;47.70;27.13;;;;;;;13.18;55.55;102444.16;4956713;28;124499;-80
2023/04/09 03:10:36;;;;;;;41.65;25.23;;;;;;;13.17;55.43;102439.75;4969586;28;120665;-80
2023/04/09 03:13:03;;;;;;;44.05;24.48;;;;;;;13.17;55.32;102445.09;4964389;28;120258;-79
2023/04/09 03:15:31;;;;;;;45.00;25.42;;;;;;;13.15;55.44;102446.91;4967191;28;123909;-79
2023/04/09 03:17:58;;;;;;;41.63;24.50;;;;;;;13.14;55.46;102445.16;4968770;28;124620;-79
2023/04/09 03:20:25;;;;;;;37.33;22.88;;;;;;;13.13;55.40;102440.75;4956017;28;117833;-79
2023/04/09 03:22:52;;;;;;;37.92;22.58;;;;;;;13.08;55.22;102430.25;4968474;28;118303;-79
2023/04/09 03:25:27;;;;;;;34.72;20.67;;;;;;;13.04;55.07;102437.44;4949928;28;123710;-78
2023/04/09 03:27:55;;;;;;;35.10;21.58;;;;;;;13.00;55.11;102433.16;4956608;28;125129;-79
2023/04/09 03:30:32;;;;;;;37.70;19.95;;;;;;;12.95;55.09;102427.09;4967680;28;120162;-78
2023/04/09 03:33:01;;;;;;;35.17;21.10;;;;;;;12.92;55.13;102434.28;4952287;28;117672;-78
2023/04/09 03:35:32;;;;;;;32.20;19.95;;;;;;;12.88;55.12;102428.19;4948634;28;123692;-78
2023/04/09 03:38:00;;;;;;;36.85;20.52;;;;;;;12.84;55.11;102431.84;4969708;28;123224;-79
2023/04/09 03:40:27;;;;;;;34.42;20.63;;;;;;;12.80;55.02;102435.50;4956885;28;119106;-79
2023/04/09 03:42:54;;;;;;;30.92;19.42;;;;;;;12.76;55.32;102428.53;4968449;28;119998;-79
2023/04/09 03:45:22;;;;;;;33.83;18.98;;;;;;;12.69;54.88;102424.31;4970797;28;123617;-79
2023/04/09 03:47:51;;;;;;;34.28;20.35;;;;;;;12.63;54.90;102418.25;4971715;28;124337;-78
2023/04/09 03:50:22;;;;;;;33.78;20.00;;;;;;;12.57;54.94;102426.41;4975213;28;117829;-79
2023/04/09 03:52:53;;;;;;;32.92;19.65;;;;;;;12.50;54.83;102422.16;4940987;28;118662;-79
2023/04/09 03:55:21;;;;;;;33.38;19.88;;;;;;;12.44;54.77;102419.69;4949791;28;125478;-79
2023/04/09 03:57:49;;;;;;;34.75;20.75;;;;;;;12.39;54.68;102424.25;4952300;28;122786;-79
2023/04/09 04:00:19;;;;;;;33.92;18.80;;;;;;;12.31;54.95;102420.94;4951392;28;120021;-79
2023/04/09 04:02:50;;;;;;;33.38;19.75;;;;;;;12.27;54.79;102421.00;4950149;28;122036;-79
2023/04/09 04:05:34;;;;;;;32.70;19.53;;;;;;;12.21;54.78;102421.19;4953449;28;123586;-79
2023/04/09 04:08:06;;;;;;;33.22;19.45;;;;;;;12.17;54.95;102419.53;4967524;28;123022;-79
2023/04/09 04:10:33;;;;;;;34.20;20.65;;;;;;;12.12;54.97;102420.56;4950888;28;117833;-79
2023/04/09 04:13:01;;;;;;;32.60;19.88;;;;;;;12.06;54.48;102421.59;4952472;28;117214;-79
2023/04/09 04:15:41;;;;;;;33.05;19.55;;;;;;;12.00;54.90;102416.44;4950161;28;126451;-79
2023/04/09 04:18:11;;;;;;;34.25;19.85;;;;;;;11.94;55.03;102413.94;4937838;28;123698;-79
2023/04/09 04:20:44;;;;;;;32.40;19.70;;;;;;;11.90;55.12;102420.22;4953311;28;118478;-79
2023/04/09 04:23:13;;;;;;;33.95;19.42;;;;;;;11.83;54.94;102420.34;4952281;28;118608;-79
2023/04/09 04:26:10;;;;;;;33.22;19.15;;;;;;;11.79;55.11;102417.81;4969895;28;123935;-79
2023/04/09 04:28:39;;;;;;;33.58;20.13;;;;;;;11.74;55.01;102417.94;4953471;28;123688;-78
2023/04/09 04:31:11;;;;;;;35.03;20.02;;;;;;;11.69;55.16;102411.84;4968750;28;119659;-79
2023/04/09 04:33:41;;;;;;;36.28;20.88;;;;;;;11.63;55.27;102412.00;4952364;28;118825;-78
2023/04/09 04:36:13;;;;;;;36.55;20.60;;;;;;;11.59;54.97;102415.66;4952766;28;123161;-79
2023/04/09 04:38:45;;;;;;;39.42;21.40;;;;;;;11.52;55.07;102419.34;4963064;28;123761;-78
2023/04/09 04:41:23;;;;;;;37.17;20.52;;;;;;;11.44;55.14;102428.34;4948502;28;117797;-78
2023/04/09 04:43:57;;;;;;;37.63;21.30;;;;;;;11.34;55.04;102426.84;4954013;28;118952;-79
2023/04/09 04:46:25;;;;;;;34.95;19.63;;;;;;;11.26;55.39;102424.38;4969971;28;124992;-79
2023/04/09 04:48:52;;;;;;;39.95;21.13;;;;;;;11.20;55.51;102424.47;4962695;28;124889;-79
2023/04/09 04:51:21;;;;;;;41.38;20.42;;;;;;;11.15;55.41;102425.47;4951347;28;120226;-78
2023/04/09 04:54:03;;;;;;;35.53;19.92;;;;;;;11.06;55.41;102422.13;4950680;28;120195;-79
2023/04/09 04:56:30;;;;;;;40.40;21.17;;;;;;;11.01;55.60;102429.31;4961450;28;123615;-78
2023/04/09 04:59:03;;;;;;;36.75;19.98;;;;;;;10.95;55.75;102418.84;4957219;28;124779;-79
2023/04/09 05:01:43;;;;;;;36.53;20.55;;;;;;;10.91;55.85;102427.78;4959065;28;119599;-78
2023/04/09 05:04:12;;;;;;;38.70;20.70;;;;;;;10.85;56.20;102423.47;4967840;28;118789;-79
2023/04/09 05:06:39;;;;;;;38.80;21.05;;;;;;;10.83;55.77;102429.69;4969337;28;124917;-79
2023/04/09 05:09:12;;;;;;;37.67;20.08;;;;;;;10.78;56.09;102426.28;4959732;28;122621;-78
2023/04/09 05:11:48;;;;;;;36.30;20.73;;;;;;;10.76;56.00;102422.78;4973753;28;118324;-79
2023/04/09 05:14:20;;;;;;;37.22;20.50;;;;;;;10.71;56.22;102426.38;4942536;28;118398;-79
2023/04/09 05:16:48;;;;;;;37.88;20.42;;;;;;;10.68;56.10;102423.81;4955176;28;122526;-78
2023/04/09 05:19:18;;;;;;;35.10;20.08;;;;;;;10.65;56.07;102426.50;4956994;28;124028;-78
2023/04/09 05:21:46;;;;;;;41.92;21.95;;;;;;;10.65;56.47;102425.66;4956949;28;118725;-79
2023/04/09 05:24:19;;;;;;;40.55;20.42;;;;;;;10.64;56.22;102424.78;4966667;28;117775;-78
2023/04/09 05:26:48;;;;;;;39.53;20.98;;;;;;;10.62;56.34;102421.25;4940200;28;123963;-79
2023/04/09 05:29:16;;;;;;;34.97;20.25;;;;;;;10.60;56.40;102423.06;4946196;23;123201;-71
2023/04/09 05:31:43;;;;;;;38.17;20.80;;;;;;;10.59;56.60;102426.66;4920289;28;118762;-71
2023/04/09 05:34:20;;;;;;;40.60;21.38;;;;;;;10.56;56.45;102426.69;4900099;28;123056;-71
2023/04/09 05:36:51;;;;;;;39.13;20.40;;;;;;;10.53;56.42;102426.78;4912558;28;123631;-71
2023/04/09 05:39:22;;;;;;;37.60;20.52;;;;;;;10.52;56.49;102427.66;4927830;28;122343;-71
2023/04/09 05:41:51;;;;;;;36.83;20.52;;;;;;;10.49;56.71;102419.75;4910394;28;118427;-71
2023/04/09 05:44:26;;;;;;;38.15;20.27;;;;;;;10.50;56.79;102424.16;4913801;28;120507;-71
2023/04/09 05:47:04;;;;;;;41.85;20.25;;;;;;;10.48;56.68;102420.69;4929565;28;126558;-71
2023/04/09 05:49:39;;;;;;;40.63;20.50;;;;;;;10.46;56.63;102425.13;4927288;28;126126;-71
2023/04/09 05:52:11;;;;;;;35.92;18.77;;;;;;;10.45;56.67;102428.69;4914096;28;118915;-70
2023/04/09 05:54:38;;;;;;;38.88;19.90;;;;;;;10.45;56.77;102426.94;4928180;28;118357;-71
2023/04/09 05:57:08;;;;;;;37.50;19.92;;;;;;;10.45;57.05;102426.03;4912147;28;124233;-71
2023/04/09 05:59:37;;;;;;;41.40;20.15;;;;;;;10.45;57.01;102426.03;4929898;28;124000;-70
2023/04/09 06:02:05;;;;;;;36.70;19.35;;;;;;;10.45;57.01;102423.38;4912123;28;119448;-71
2023/04/09 06:04:32;;;;;;;39.45;20.02;;;;;;;10.47;57.03;102426.88;4929576;28;118252;-69
2023/04/09 06:07:00;;;;;;;37.70;19.70;;;;;;;10.46;56.99;102426.00;4920736;28;124723;-73
2023/04/09 06:09:27;;;;;;;40.85;20.08;;;;;;;10.47;57.14;102424.22;4908993;28;123720;-69
2023/04/09 06:11:54;;;;;;;42.17;20.90;;;;;;;10.47;57.25;102426.88;4924542;28;118381;-69
2023/04/09 06:14:22;;;;;;;37.30;19.48;;;;;;;10.49;57.27;102430.34;4913674;28;118911;-69
2023/04/09 06:16:49;;;;;;;39.10;19.80;;;;;;;10.51;57.55;102428.59;4933469;28;124400;-70
2023/04/09 06:19:17;;;;;;;39.33;19.92;;;;;;;10.53;57.35;102426.78;4931043;28;123638;-69
2023/04/09 06:21:44;;;;;;;42.00;20.88;;;;;;;10.56;57.55;102429.34;4910003;28;119684;-69
2023/04/09 06:24:12;;;;;;;41.50;21.35;;;;;;;10.60;57.54;102432.81;4913610;28;119031;-69
2023/04/09 06:26:39;;;;;;;44.67;21.58;;;;;;;10.63;58.10;102441.56;4910278;28;124088;-69
2023/04/09 06:29:06;;;;;;;38.58;20.20;;;;;;;10.66;57.79;102443.28;4911046;28;124713;-68
2023/04/09 06:31:33;;;;;;;39.47;19.50;;;;;;;10.70;57.91;102440.56;4911496;28;120077;-69
2023/04/09 06:34:01;;;;;;;40.78;20.38;;;;;;;10.78;57.93;102448.34;4908952;28;120251;-69
2023/04/09 06:36:29;;;;;;;40.28;20.65;;;;;;;10.84;57.96;102447.34;4913586;28;124201;-69
2023/04/09 06:38:57;;;;;;;35.60;19.65;;;;;;;10.92;57.98;102445.41;4911064;28;124692;-69
2023/04/09 06:41:25;;;;;;;39.55;21.40;;;;;;;11.01;58.00;102445.22;4907400;28;119407;-69
2023/04/09 06:43:53;;;;;;;37.70;20.73;;;;;;;11.08;58.09;102446.84;4912062;28;119126;-69
2023/04/09 06:46:21;;;;;;;39.08;21.70;;;;;;;11.20;57.92;102450.13;4913889;28;123197;-70
2023/04/09 06:48:48;;;;;;;41.65;21.10;;;;;;;11.30;58.14;102451.66;4910209;28;125066;-68
2023/04/09 06:51:15;;;;;;;41.33;20.48;;;;;;;11.41;57.97;102454.94;4909198;28;119808;-69
2023/04/09 06:53:42;;;;;;;40.67;21.20;;;;;;;11.48;57.96;102445.94;4921464;28;119282;-69
2023/04/09 06:56:10;;;;;;;36.08;20.45;;;;;;;11.56;57.64;102447.56;4914567;28;124376;-69
2023/04/09 06:58:37;;;;;;;38.63;20.48;;;;;;;11.66;57.81;102449.09;4899072;28;123034;-72
2023/04/09 07:01:04;;;;;;;38.78;21.25;;;;;;;11.76;57.55;102455.91;4926302;28;119178;-69
2023/04/09 07:03:32;;;;;;;38.25;20.63;;;;;;;11.84;57.67;102453.94;4927683;28;118015;-69
2023/04/09 07:06:00;;;;;;;33.50;19.40;;;;;;;11.96;57.38;102446.63;4909371;28;124008;-69
2023/04/09 07:08:27;;;;;;;38.08;21.38;;;;;;;12.07;57.56;102450.78;4911202;28;123543;-69
2023/04/09 07:10:55;;;;;;;38.35;20.38;;;;;;;12.21;57.44;102453.06;4908664;28;119619;-69
2023/04/09 07:13:22;;;;;;;36.25;20.25;;;;;;;12.35;57.26;102454.47;4911926;28;118921;-69
2023/04/09 07:15:49;;;;;;;36.58;20.55;;;;;;;12.50;57.46;102454.06;4924619;28;123527;-70
2023/04/09 07:18:16;;;;;;;34.53;19.98;;;;;;;12.66;57.32;102454.53;4919659;28;123493;-70
2023/04/09 07:20:43;;;;;;;36.30;19.73;;;;;;;12.84;57.22;102463.75;4910569;28;120959;-69
2023/04/09 07:23:10;;;;;;;31.92;16.10;;;;;;;13.02;57.34;102463.22;4908424;28;119942;-70
2023/04/09 07:25:38;;;;;;;29.83;15.65;;;;;;;13.19;57.23;102465.38;4916985;28;124396;-71
2023/04/09 07:28:05;;;;;;;32.35;17.92;;;;;;;13.37;56.94;102453.34;4909926;28;124661;-72
2023/04/09 07:30:32;;;;;;;32.45;20.13;;;;;;;13.53;56.56;102458.19;4909602;28;119357;-70
2023/04/09 07:32:59;;;;;;;34.97;20.15;;;;;;;13.67;56.33;102455.94;4931480;28;118166;-71
2023/04/09 07:35:30;;;;;;;35.10;20.30;;;;;;;13.82;56.11;102450.16;4909393;28;123850;-70
2023/04/09 07:38:00;;;;;;;33.85;21.52;;;;;;;13.98;56.01;102454.97;4923483;28;123554;-70
2023/04/09 07:40:27;;;;;;;34.20;20.35;;;;;;;14.14;55.73;102449.97;4910117;28;119410;-71
2023/04/09 07:42:56;;;;;;;32.85;19.60;;;;;;;14.31;55.53;102452.06;4904009;28;119091;-70
2023/04/09 07:45:24;;;;;;;30.95;19.27;;;;;;;14.44;55.14;102448.03;4908243;28;123687;-71
2023/04/09 07:47:51;;;;;;;31.45;20.33;;;;;;;14.54;54.99;102449.47;4903658;28;124409;-71
2023/04/09 07:50:19;;;;;;;29.05;20.08;;;;;;;14.62;54.15;102440.31;4909098;28;119431;-70
2023/04/09 07:52:46;;;;;;;32.20;20.38;;;;;;;14.68;54.10;102450.78;4917258;28;118224;-70
2023/04/09 07:55:13;;;;;;;30.08;19.02;;;;;;;14.76;54.19;102448.69;4918140;28;124087;-70
2023/04/09 07:57:44;;;;;;;29.92;19.35;;;;;;;14.85;54.06;102451.03;4929915;28;123128;-70
2023/04/09 08:00:11;;;;;;;30.83;18.50;;;;;;;14.93;53.56;102448.94;4908880;28;120497;-70
2023/04/09 08:02:39;;;;;;;29.38;19.35;;;;;;;14.99;53.72;102454.06;4911878;28;119957;-71
2023/04/09 08:05:07;;;;;;;31.17;17.55;;;;;;;15.12;53.51;102450.91;4910623;28;124600;-71
2023/04/09 08:07:34;;;;;;;26.92;17.63;;;;;;;15.21;53.23;102450.56;4908343;28;123818;-71
2023/04/09 08:10:01;;;;;;;27.08;17.58;;;;;;;15.28;52.86;102451.19;4908758;28;120652;-71
2023/04/09 08:12:29;;;;;;;30.08;18.25;;;;;;;15.35;53.04;102448.22;4908938;28;119985;-71
2023/04/09 08:14:56;;;;;;;28.08;17.05;;;;;;;15.45;53.07;102447.88;4926963;28;123843;-71
2023/04/09 08:17:24;;;;;;;26.45;17.25;;;;;;;15.51;52.76;102447.63;4918567;28;96876;-72
2023/04/09 08:19:51;;;;;;;30.92;17.88;;;;;;;15.57;52.43;102447.34;4926344;28;119106;-71
2023/04/09 08:22:19;;;;;;;25.60;16.52;;;;;;;15.66;52.41;102452.31;4921721;28;118868;-71
2023/04/09 08:24:50;;;;;;;25.83;16.58;;;;;;;15.77;52.11;102450.13;4917475;28;124092;-71
2023/04/09 08:27:18;;;;;;;26.55;16.45;;;;;;;15.90;52.19;102449.63;4908941;28;123987;-71
2023/04/09 08:29:45;;;;;;;25.63;15.80;;;;;;;16.00;51.48;102450.97;4910777;28;119278;-71
2023/04/09 08:32:13;;;;;;;21.75;15.00;;;;;;;16.09;51.01;102455.94;4908282;28;119642;-71
2023/04/09 08:34:40;;;;;;;21.33;12.85;;;;;;;16.18;50.55;102448.44;4907799;28;123955;-71
2023/04/09 08:37:07;;;;;;;19.88;13.50;;;;;;;16.24;50.15;102448.19;4908624;28;123681;-71
2023/04/09 08:39:35;;;;;;;17.80;12.60;;;;;;;16.26;49.56;102451.66;4907165;28;119909;-71
2023/04/09 08:42:05;;;;;;;20.95;12.95;;;;;;;16.29;49.50;102452.41;4932578;28;119115;-70
2023/04/09 08:44:32;;;;;;;21.77;13.35;;;;;;;16.36;49.63;102453.00;4921845;28;124040;-69
2023/04/09 08:47:00;;;;;;;20.83;13.13;;;;;;;16.43;49.38;102453.59;4905902;28;124703;-70
2023/04/09 08:49:27;;;;;;;22.23;13.95;;;;;;;16.51;49.05;102446.97;4910079;28;120277;-70
2023/04/09 08:51:54;;;;;;;19.70;13.05;;;;;;;16.58;48.56;102436.03;4915532;28;119138;-70
2023/04/09 08:54:25;;;;;;;21.13;13.35;;;;;;;16.66;48.77;102445.41;4914427;28;124490;-70
2023/04/09 08:56:52;;;;;;;21.23;13.90;;;;;;;16.71;48.30;102442.53;4909027;28;124121;-70
2023/04/09 08:59:20;;;;;;;20.13;12.98;;;;;;;16.74;48.32;102448.63;4905916;28;121070;-70
2023/04/09 09:01:52;;;;;;;20.98;12.75;;;;;;;16.81;48.23;102443.84;4909665;28;119884;-70
2023/04/09 09:04:21;;;;;;;18.67;12.45;;;;;;;16.90;47.58;102443.47;4913148;28;124714;-70
2023/04/09 09:06:48;;;;;;;20.17;13.27;;;;;;;16.96;47.64;102430.75;4913118;28;123692;-70
2023/04/09 09:09:17;;;;;;;19.85;13.13;;;;;;;17.00;47.51;102433.19;4912473;28;119360;-70
2023/04/09 09:11:47;;;;;;;19.83;13.18;;;;;;;17.08;47.64;102424.81;4915597;28;119430;-69
2023/04/09 09:14:17;;;;;;;21.27;13.60;;;;;;;17.18;47.45;102431.47;4929618;28;124584;-70
2023/04/09 09:16:56;;;;;;;20.10;13.45;;;;;;;17.28;47.36;102422.03;4912242;28;123830;-70
2023/04/09 09:19:24;;;;;;;20.55;12.32;;;;;;;17.42;47.43;102423.19;4908367;28;119313;-70
2023/04/09 09:21:58;;;;;;;19.38;12.85;;;;;;;17.55;47.22;102418.97;4897476;28;118210;-71
2023/04/09 09:24:26;;;;;;;17.93;12.57;;;;;;;17.66;46.79;102421.97;4912570;28;123108;-71
2023/04/09 09:26:58;;;;;;;18.20;12.30;;;;;;;17.70;46.34;102426.22;4919696;28;124256;-71
2023/04/09 09:29:26;;;;;;;18.70;12.68;;;;;;;17.77;46.55;102417.91;4914076;28;120269;-71
2023/04/09 09:31:55;;;;;;;19.42;12.18;;;;;;;17.87;46.38;102419.19;4924451;28;118444;-72
2023/04/09 09:34:24;;;;;;;16.55;11.05;;;;;;;17.95;45.73;102411.66;4909496;28;124339;-71
2023/04/09 09:36:52;;;;;;;16.35;10.73;;;;;;;18.02;45.76;102412.19;4908403;28;123705;-71
2023/04/09 09:39:20;;;;;;;15.23;10.02;;;;;;;18.09;45.37;102414.47;4912917;28;119931;-70
2023/04/09 09:42:06;;;;;;;16.20;10.52;;;;;;;18.17;45.66;102410.53;4902956;28;118818;-70
2023/04/09 09:44:34;;;;;;;;;;;;;;;18.25;46.54;102400.25;4917339;28;124540;-71
2023/04/09 09:47:03;;;;;;;14.38;9.10;;;;;;;18.32;45.07;102408.88;4916324;28;124654;-71
2023/04/09 09:49:30;;;;;;;13.13;9.30;;;;;;;18.34;44.49;102396.25;4925190;28;120784;-71
2023/04/09 09:52:01;;;;;;;15.60;9.75;;;;;;;18.37;44.35;102401.44;4916226;28;120217;-71
2023/04/09 09:54:37;;;;;;;14.50;9.95;;;;;;;18.37;44.00;102402.31;4919356;28;124397;-71
2023/04/09 09:57:08;;;;;;;15.75;10.07;;;;;;;18.43;44.06;102401.97;4911603;28;124050;-71
2023/04/09 09:59:50;;;;;;;16.15;10.15;;;;;;;18.54;44.59;102413.97;4913486;28;119659;-70
2023/04/09 10:02:21;;;;;;;16.95;10.75;;;;;;;18.63;43.53;102397.38;4919457;28;118586;-70
2023/04/09 10:04:51;;;;;;;13.52;10.13;;;;;;;18.65;43.65;102384.75;4914045;28;125019;-70
2023/04/09 10:07:22;;;;;;;17.15;10.60;;;;;;;18.72;43.95;102385.25;4918402;28;124344;-70
2023/04/09 10:09:51;;;;;;;16.38;10.52;;;;;;;18.81;43.28;102388.31;4915073;28;119384;-70
2023/04/09 10:12:24;;;;;;;16.17;10.35;;;;;;;18.82;43.06;102381.16;4916171;28;119745;-70
2023/04/09 10:14:51;;;;;;;17.60;11.32;;;;;;;18.80;42.74;102378.56;4927375;28;124109;-70
2023/04/09 10:17:19;;;;;;;17.98;11.10;;;;;;;18.74;42.54;102378.88;4910432;28;123954;-70
2023/04/09 10:19:57;;;;;;;14.45;10.15;;;;;;;18.65;41.27;102374.84;4924219;28;119147;-70
2023/04/09 10:22:28;;;;;;;15.77;10.95;;;;;;;18.59;41.64;102374.31;4910768;28;118845;-70
2023/04/09 10:24:56;;;;;;;18.52;10.68;;;;;;;18.54;41.88;102376.41;4910469;28;125529;-70
2023/04/09 10:27:27;;;;;;;14.90;10.30;;;;;;;18.50;41.19;102378.38;4913130;28;123245;-69
2023/04/09 10:29:54;;;;;;;14.95;9.98;;;;;;;18.51;41.61;102376.56;4917402;28;119789;-70
2023/04/09 10:32:25;;;;;;;13.15;10.02;;;;;;;18.57;42.32;102370.84;4912125;28;119131;-70
2023/04/09 10:34:58;;;;;;;15.10;10.50;;;;;;;18.65;41.77;102368.63;4910346;28;124329;-69
2023/04/09 10:37:26;;;;;;;15.00;10.40;;;;;;;18.71;41.89;102362.91;4923956;28;123715;-69
2023/04/09 10:39:55;;;;;;;14.90;9.60;;;;;;;18.73;41.46;102361.00;4911521;28;119159;-69
2023/04/09 10:42:28;;;;;;;13.30;9.40;;;;;;;18.71;41.46;102362.91;4908527;28;120222;-69
2023/04/09 10:45:10;;;;;;;14.30;9.30;;;;;;;18.71;41.31;102356.69;4905549;28;124415;-69
2023/04/09 10:47:40;;;;;;;13.52;9.25;;;;;;;18.70;40.72;102350.44;4920965;28;124554;-70
2023/04/09 10:50:27;;;;;;;12.65;9.00;;;;;;;18.66;40.52;102348.88;4909334;28;119232;-70
2023/04/09 10:52:57;;;;;;;13.32;9.20;;;;;;;18.68;41.27;102352.34;4908991;28;119867;-70
2023/04/09 10:55:38;;;;;;;12.77;8.93;;;;;;;18.76;40.78;102339.38;4915246;28;124101;-71
2023/04/09 10:58:07;;;;;;;14.32;9.05;;;;;;;18.83;41.13;102351.53;4913188;28;124002;-71
2023/04/09 11:00:41;;;;;;;12.13;8.60;;;;;;;18.94;40.50;102336.63;4912231;28;121060;-71
2023/04/09 11:03:20;;;;;;;13.30;8.85;;;;;;;19.00;40.63;102342.50;4909952;28;118861;-69
2023/04/09 11:05:57;;;;;;;12.00;8.23;;;;;;;19.04;39.83;102348.56;4922780;28;124146;-69
2023/04/09 11:08:31;;;;;;;13.05;8.45;;;;;;;19.04;39.97;102343.22;4917210;28;124205;-67
2023/04/09 11:11:00;;;;;;;11.77;8.02;;;;;;;19.11;40.03;102333.84;4913651;28;120176;-69
2023/04/09 11:13:30;;;;;;;10.68;7.88;;;;;;;19.20;39.75;102338.69;4909424;28;119033;-67